sensor_id;sensor_type;location;lat;lon;timestamp;P1;durP1;ratioP1;P2;durP2;ratioP2
10009;SDS011;5044;48.652;9.250;2023-09-30T17:33:58;8.50;;;3.47;;
10009;SDS011;5044;48.652;9.250;2023-09-30T17:36:25;7.75;;;3.50;;
10009;SDS011;5044;48.652;9.250;2023-09-30T17:38:52;9.73;;;3.30;;
10009;SDS011;5044;48.652;9.250;2023-09-30T17:41:19;7.47;;;3.22;;
10009;SDS011;5044;48.652;9.250;2023-09-30T17:43:45;7.30;;;3.20;;
10009;SDS011;5044;48.652;9.250;2023-09-30T17:46:15;7.50;;;3.50;;
10009;SDS011;5044;48.652;9.250;2023-09-30T17:48:44;15.90;;;3.70;;
10009;SDS011;5044;48.652;9.250;2023-09-30T17:51:17;9.35;;;3.10;;
10009;SDS011;5044;48.652;9.250;2023-09-30T17:53:45;9.57;;;3.10;;
10009;SDS011;5044;48.652;9.250;2023-09-30T17:56:12;8.77;;;3.55;;
10009;SDS011;5044;48.652;9.250;2023-09-30T17:58:40;7.18;;;3.20;;
10009;SDS011;5044;48.652;9.250;2023-09-30T18:01:07;9.25;;;3.50;;
10009;SDS011;5044;48.652;9.250;2023-09-30T18:03:34;9.07;;;3.38;;
10009;SDS011;5044;48.652;9.250;2023-09-30T18:06:04;7.70;;;3.20;;
10009;SDS011;5044;48.652;9.250;2023-09-30T18:08:33;12.30;;;3.70;;
10009;SDS011;5044;48.652;9.250;2023-09-30T18:11:01;6.05;;;2.88;;
10009;SDS011;5044;48.652;9.250;2023-09-30T18:13:31;13.85;;;4.30;;
10009;SDS011;5044;48.652;9.250;2023-09-30T18:15:59;9.18;;;3.10;;
10009;SDS011;5044;48.652;9.250;2023-09-30T18:18:27;8.75;;;3.40;;
10009;SDS011;5044;48.652;9.250;2023-09-30T18:20:55;9.27;;;3.80;;
10009;SDS011;5044;48.652;9.250;2023-09-30T18:23:22;9.55;;;3.67;;
10009;SDS011;5044;48.652;9.250;2023-09-30T18:25:51;8.88;;;3.72;;
10009;SDS011;5044;48.652;9.250;2023-09-30T18:28:18;9.57;;;3.90;;
10009;SDS011;5044;48.652;9.250;2023-09-30T18:30:45;11.57;;;3.65;;
10009;SDS011;5044;48.652;9.250;2023-09-30T18:33:14;8.07;;;4.15;;
10009;SDS011;5044;48.652;9.250;2023-09-30T18:35:42;14.40;;;5.97;;
10009;SDS011;5044;48.652;9.250;2023-09-30T18:38:10;14.80;;;6.20;;
10009;SDS011;5044;48.652;9.250;2023-09-30T18:40:41;13.32;;;5.32;;
10009;SDS011;5044;48.652;9.250;2023-09-30T18:43:12;12.25;;;4.32;;
10009;SDS011;5044;48.652;9.250;2023-09-30T18:45:39;10.50;;;4.18;;
10009;SDS011;5044;48.652;9.250;2023-09-30T18:48:06;10.52;;;3.90;;
10009;SDS011;5044;48.652;9.250;2023-09-30T18:50:38;9.93;;;4.20;;
10009;SDS011;5044;48.652;9.250;2023-09-30T18:53:09;12.75;;;3.72;;
10009;SDS011;5044;48.652;9.250;2023-09-30T18:55:39;7.80;;;3.60;;
10009;SDS011;5044;48.652;9.250;2023-09-30T18:58:08;11.02;;;4.00;;
10009;SDS011;5044;48.652;9.250;2023-09-30T19:00:38;9.07;;;4.47;;
10009;SDS011;5044;48.652;9.250;2023-09-30T19:03:09;8.60;;;3.75;;
10009;SDS011;5044;48.652;9.250;2023-09-30T19:05:51;12.27;;;4.28;;
10009;SDS011;5044;48.652;9.250;2023-09-30T19:08:21;14.23;;;4.32;;
10009;SDS011;5044;48.652;9.250;2023-09-30T19:10:50;8.07;;;3.40;;
10009;SDS011;5044;48.652;9.250;2023-09-30T19:13:17;10.50;;;3.83;;
10009;SDS011;5044;48.652;9.250;2023-09-30T19:15:46;10.10;;;3.65;;
10009;SDS011;5044;48.652;9.250;2023-09-30T19:18:13;9.70;;;3.47;;
10009;SDS011;5044;48.652;9.250;2023-09-30T19:20:42;10.40;;;3.88;;
10009;SDS011;5044;48.652;9.250;2023-09-30T19:23:10;9.43;;;3.75;;
10009;SDS011;5044;48.652;9.250;2023-09-30T19:25:37;12.88;;;4.10;;
10009;SDS011;5044;48.652;9.250;2023-09-30T19:28:04;11.18;;;4.20;;
10009;SDS011;5044;48.652;9.250;2023-09-30T19:30:32;8.77;;;3.47;;
10009;SDS011;5044;48.652;9.250;2023-09-30T19:33:01;9.85;;;3.15;;
10009;SDS011;5044;48.652;9.250;2023-09-30T19:35:28;10.07;;;3.97;;
10009;SDS011;5044;48.652;9.250;2023-09-30T19:37:56;14.15;;;5.88;;
10009;SDS011;5044;48.652;9.250;2023-09-30T19:40:23;13.73;;;3.92;;
10009;SDS011;5044;48.652;9.250;2023-09-30T19:42:50;13.35;;;4.43;;
10009;SDS011;5044;48.652;9.250;2023-09-30T19:45:18;13.30;;;3.50;;
10009;SDS011;5044;48.652;9.250;2023-09-30T19:47:45;8.90;;;3.58;;
10009;SDS011;5044;48.652;9.250;2023-09-30T19:50:14;9.57;;;3.40;;
10009;SDS011;5044;48.652;9.250;2023-09-30T19:52:41;13.82;;;3.95;;
10009;SDS011;5044;48.652;9.250;2023-09-30T19:55:09;10.52;;;3.47;;
10009;SDS011;5044;48.652;9.250;2023-09-30T19:57:36;10.88;;;3.92;;
10009;SDS011;5044;48.652;9.250;2023-09-30T20:00:03;10.52;;;3.40;;
10009;SDS011;5044;48.652;9.250;2023-09-30T20:02:35;10.20;;;3.88;;
10009;SDS011;5044;48.652;9.250;2023-09-30T20:05:02;13.18;;;3.55;;
10009;SDS011;5044;48.652;9.250;2023-09-30T20:07:32;9.45;;;3.50;;
10009;SDS011;5044;48.652;9.250;2023-09-30T20:10:00;8.95;;;3.90;;
10009;SDS011;5044;48.652;9.250;2023-09-30T20:12:29;10.27;;;3.72;;
10009;SDS011;5044;48.652;9.250;2023-09-30T20:15:00;9.68;;;3.78;;
10009;SDS011;5044;48.652;9.250;2023-09-30T20:17:54;10.00;;;3.72;;
10009;SDS011;5044;48.652;9.250;2023-09-30T20:20:26;9.68;;;3.25;;
10009;SDS011;5044;48.652;9.250;2023-09-30T20:22:58;6.72;;;3.38;;
10009;SDS011;5044;48.652;9.250;2023-09-30T20:25:36;8.63;;;3.95;;
10009;SDS011;5044;48.652;9.250;2023-09-30T20:28:14;11.02;;;4.15;;
10009;SDS011;5044;48.652;9.250;2023-09-30T20:30:47;9.93;;;4.05;;
10009;SDS011;5044;48.652;9.250;2023-09-30T20:33:18;8.23;;;4.47;;
10009;SDS011;5044;48.652;9.250;2023-09-30T20:35:51;9.10;;;3.85;;
10009;SDS011;5044;48.652;9.250;2023-09-30T20:38:49;6.22;;;3.15;;
10009;SDS011;5044;48.652;9.250;2023-09-30T20:41:40;9.73;;;4.10;;
10009;SDS011;5044;48.652;9.250;2023-09-30T20:44:09;8.35;;;3.60;;
10009;SDS011;5044;48.652;9.250;2023-09-30T20:46:40;7.47;;;3.13;;
10009;SDS011;5044;48.652;9.250;2023-09-30T20:49:08;7.82;;;3.47;;
10009;SDS011;5044;48.652;9.250;2023-09-30T20:51:37;7.68;;;3.95;;
10009;SDS011;5044;48.652;9.250;2023-09-30T20:54:05;8.63;;;3.30;;
10009;SDS011;5044;48.652;9.250;2023-09-30T20:56:33;8.95;;;3.60;;
10009;SDS011;5044;48.652;9.250;2023-09-30T20:59:00;8.35;;;3.50;;
10009;SDS011;5044;48.652;9.250;2023-09-30T21:01:31;11.43;;;4.22;;
10009;SDS011;5044;48.652;9.250;2023-09-30T21:04:02;7.63;;;3.38;;
10009;SDS011;5044;48.652;9.250;2023-09-30T21:06:30;11.15;;;4.50;;
10009;SDS011;5044;48.652;9.250;2023-09-30T21:08:57;15.85;;;8.07;;
10009;SDS011;5044;48.652;9.250;2023-09-30T21:11:25;11.38;;;4.03;;
10009;SDS011;5044;48.652;9.250;2023-09-30T21:13:52;12.35;;;3.85;;
10009;SDS011;5044;48.652;9.250;2023-09-30T21:16:19;10.15;;;4.18;;
10009;SDS011;5044;48.652;9.250;2023-09-30T21:18:48;11.20;;;4.00;;
10009;SDS011;5044;48.652;9.250;2023-09-30T21:21:18;10.98;;;4.47;;
10009;SDS011;5044;48.652;9.250;2023-09-30T21:23:45;11.57;;;4.00;;
10009;SDS011;5044;48.652;9.250;2023-09-30T21:26:12;9.02;;;3.72;;
10009;SDS011;5044;48.652;9.250;2023-09-30T21:28:42;9.63;;;3.35;;
10009;SDS011;5044;48.652;9.250;2023-09-30T21:31:14;9.57;;;3.83;;
10009;SDS011;5044;48.652;9.250;2023-09-30T21:33:43;13.25;;;3.88;;
10009;SDS011;5044;48.652;9.250;2023-09-30T21:36:12;10.13;;;4.05;;
10009;SDS011;5044;48.652;9.250;2023-09-30T21:38:40;8.60;;;3.65;;
10009;SDS011;5044;48.652;9.250;2023-09-30T21:41:10;10.52;;;3.90;;
10009;SDS011;5044;48.652;9.250;2023-09-30T21:43:42;10.25;;;4.15;;
10009;SDS011;5044;48.652;9.250;2023-09-30T21:46:18;9.82;;;4.15;;
10009;SDS011;5044;48.652;9.250;2023-09-30T21:48:52;11.73;;;3.92;;
10009;SDS011;5044;48.652;9.250;2023-09-30T21:54:58;8.70;;;4.03;;
10009;SDS011;5044;48.652;9.250;2023-09-30T21:57:28;8.70;;;3.35;;
10009;SDS011;5044;48.652;9.250;2023-09-30T21:59:58;9.02;;;3.40;;
10009;SDS011;5044;48.652;9.250;2023-09-30T22:02:28;9.82;;;4.22;;
10009;SDS011;5044;48.652;9.250;2023-09-30T22:04:55;9.02;;;3.83;;
10009;SDS011;5044;48.652;9.250;2023-09-30T22:07:23;10.57;;;3.85;;
10009;SDS011;5044;48.652;9.250;2023-09-30T22:09:59;10.52;;;4.45;;
10009;SDS011;5044;48.652;9.250;2023-09-30T22:12:27;13.43;;;4.55;;
10009;SDS011;5044;48.652;9.250;2023-09-30T22:14:55;11.23;;;5.50;;
10009;SDS011;5044;48.652;9.250;2023-09-30T22:17:24;9.68;;;5.20;;
10009;SDS011;5044;48.652;9.250;2023-09-30T22:19:52;10.32;;;4.18;;
10009;SDS011;5044;48.652;9.250;2023-09-30T22:22:36;8.88;;;4.32;;
10009;SDS011;5044;48.652;9.250;2023-09-30T22:25:08;10.55;;;5.00;;
10009;SDS011;5044;48.652;9.250;2023-09-30T22:27:40;11.32;;;4.65;;
10009;SDS011;5044;48.652;9.250;2023-09-30T22:30:09;12.05;;;4.85;;
10009;SDS011;5044;48.652;9.250;2023-09-30T22:32:37;13.63;;;4.43;;
10009;SDS011;5044;48.652;9.250;2023-09-30T22:35:04;10.95;;;5.07;;
10009;SDS011;5044;48.652;9.250;2023-09-30T22:37:35;13.27;;;5.78;;
10009;SDS011;5044;48.652;9.250;2023-09-30T22:40:02;9.43;;;4.63;;
10009;SDS011;5044;48.652;9.250;2023-09-30T22:42:30;10.25;;;4.38;;
10009;SDS011;5044;48.652;9.250;2023-09-30T22:44:57;11.50;;;5.20;;
10009;SDS011;5044;48.652;9.250;2023-09-30T22:47:26;11.20;;;5.32;;
10009;SDS011;5044;48.652;9.250;2023-09-30T22:49:56;18.70;;;5.95;;
10009;SDS011;5044;48.652;9.250;2023-09-30T22:52:24;11.75;;;5.38;;
10009;SDS011;5044;48.652;9.250;2023-09-30T22:54:56;12.27;;;5.78;;
10009;SDS011;5044;48.652;9.250;2023-09-30T22:57:23;12.90;;;5.72;;
10009;SDS011;5044;48.652;9.250;2023-09-30T22:59:50;13.02;;;4.72;;
10009;SDS011;5044;48.652;9.250;2023-09-30T23:02:17;12.07;;;5.32;;
10009;SDS011;5044;48.652;9.250;2023-09-30T23:04:46;13.77;;;5.00;;
10009;SDS011;5044;48.652;9.250;2023-09-30T23:07:14;10.65;;;4.85;;
10009;SDS011;5044;48.652;9.250;2023-09-30T23:09:44;8.30;;;4.32;;
10009;SDS011;5044;48.652;9.250;2023-09-30T23:12:11;13.10;;;5.45;;
10009;SDS011;5044;48.652;9.250;2023-09-30T23:14:39;12.75;;;5.47;;
10009;SDS011;5044;48.652;9.250;2023-09-30T23:17:06;13.38;;;5.68;;
10009;SDS011;5044;48.652;9.250;2023-09-30T23:19:37;11.98;;;5.35;;
10009;SDS011;5044;48.652;9.250;2023-09-30T23:22:05;12.52;;;4.70;;
10009;SDS011;5044;48.652;9.250;2023-09-30T23:27:03;10.07;;;4.30;;
10009;SDS011;5044;48.652;9.250;2023-09-30T23:29:33;12.98;;;5.53;;
10009;SDS011;5044;48.652;9.250;2023-09-30T23:32:02;14.20;;;5.22;;
10009;SDS011;5044;48.652;9.250;2023-09-30T23:34:30;9.80;;;4.28;;
10009;SDS011;5044;48.652;9.250;2023-09-30T23:36:58;9.73;;;5.32;;
10009;SDS011;5044;48.652;9.250;2023-09-30T23:39:27;11.85;;;4.95;;
10009;SDS011;5044;48.652;9.250;2023-09-30T23:41:56;9.02;;;4.68;;
10009;SDS011;5044;48.652;9.250;2023-09-30T23:44:23;9.55;;;4.65;;
10009;SDS011;5044;48.652;9.250;2023-09-30T23:46:58;13.05;;;5.07;;
10009;SDS011;5044;48.652;9.250;2023-09-30T23:49:32;11.68;;;5.55;;
10009;SDS011;5044;48.652;9.250;2023-09-30T23:52:03;11.27;;;5.13;;
10009;SDS011;5044;48.652;9.250;2023-09-30T23:54:32;12.35;;;5.15;;
10009;SDS011;5044;48.652;9.250;2023-09-30T23:57:02;11.10;;;4.68;;
10009;SDS011;5044;48.652;9.250;2023-09-30T23:59:31;12.35;;;5.38;;
